Time;durP1;ratioP1;P1;durP2;ratioP2;P2;SDS_P1;SDS_P2;PMS_P1;PMS_P2;Temp;Humidity;BMP_temperature;BMP_pressure;BME280_temperature;BME280_humidity;BME280_pressure;Samples;Min_cycle;Max_cycle;Signal;HPM_P1;HPM_P2
2023/11/15 00:00:06;;;;;;;;;3.33;3.00;;;;;;;;5051648;28;9088;-81
2023/11/15 00:02:33;;;;;;;;;5.00;3.00;;;;;;;;5049263;28;9148;-81
2023/11/15 00:05:01;;;;;;;;;4.33;2.33;;;;;;;;5042523;28;9263;-82
2023/11/15 00:07:30;;;;;;;;;3.00;3.00;;;;;;;;5045736;28;9271;-81
2023/11/15 00:09:57;;;;;;;;;6.00;3.33;;;;;;;;5051190;28;9176;-83
2023/11/15 00:12:25;;;;;;;;;4.00;2.33;;;;;;;;5050083;28;9197;-83
2023/11/15 00:14:54;;;;;;;;;5.67;3.33;;;;;;;;5038642;28;9084;-82
2023/11/15 00:17:22;;;;;;;;;3.00;3.00;;;;;;;;5047536;28;9017;-81
2023/11/15 00:19:53;;;;;;;;;4.67;2.00;;;;;;;;5047915;28;9176;-79
2023/11/15 00:22:25;;;;;;;;;5.33;4.00;;;;;;;;5047178;28;9010;-79
2023/11/15 00:24:53;;;;;;;;;6.00;3.00;;;;;;;;5048463;28;9919;-83
2023/11/15 00:27:22;;;;;;;;;3.00;1.67;;;;;;;;5047341;28;9923;-83
2023/11/15 00:29:50;;;;;;;;;3.00;3.00;;;;;;;;5037574;28;8908;-82
2023/11/15 00:32:19;;;;;;;;;4.33;3.00;;;;;;;;5046053;28;9279;-83
2023/11/15 00:34:47;;;;;;;;;2.33;1.00;;;;;;;;5048451;28;9212;-82
2023/11/15 00:37:14;;;;;;;;;2.33;1.00;;;;;;;;5047357;28;9101;-83
2023/11/15 00:39:43;;;;;;;;;2.33;2.00;;;;;;;;5038131;28;9025;-82
2023/11/15 00:42:10;;;;;;;;;2.00;2.00;;;;;;;;5050450;28;9076;-80
2023/11/15 00:44:38;;;;;;;;;4.00;2.00;;;;;;;;5050959;28;9184;-79
2023/11/15 00:47:06;;;;;;;;;2.00;2.00;;;;;;;;5050869;28;9080;-80
2023/11/15 00:49:37;;;;;;;;;5.00;3.00;;;;;;;;5050682;28;9902;-78
2023/11/15 00:52:06;;;;;;;;;2.00;2.00;;;;;;;;5044905;28;9836;-81
2023/11/15 00:54:36;;;;;;;;;4.00;3.00;;;;;;;;5046890;28;9382;-78
2023/11/15 00:57:06;;;;;;;;;2.33;2.00;;;;;;;;5050646;28;9257;-79
2023/11/15 00:59:37;;;;;;;;;4.00;4.00;;;;;;;;5050834;28;9150;-80
2023/11/15 01:02:05;;;;;;;;;3.00;3.00;;;;;;;;5042904;28;9028;-81
2023/11/15 01:04:34;;;;;;;;;4.33;3.00;;;;;;;;5054362;28;9228;-77
2023/11/15 01:07:01;;;;;;;;;5.00;3.00;;;;;;;;5062918;28;9095;-78
2023/11/15 01:09:33;;;;;;;;;3.33;2.00;;;;;;;;5050697;28;9169;-79
2023/11/15 01:12:01;;;;;;;;;1.00;1.00;;;;;;;;5050988;28;9190;-81
2023/11/15 01:14:33;;;;;;;;;2.00;2.00;;;;;;;;5050478;28;8995;-80
2023/11/15 01:17:04;;;;;;;;;8.33;4.00;;;;;;;;5050457;28;9010;-80
2023/11/15 01:19:33;;;;;;;;;1.67;1.67;;;;;;;;5050594;28;9016;-79
2023/11/15 01:22:01;;;;;;;;;3.67;2.00;;;;;;;;5045835;28;9039;-80
2023/11/15 01:24:33;;;;;;;;;3.33;2.33;;;;;;;;5046308;28;9101;-81
2023/11/15 01:27:00;;;;;;;;;4.00;2.00;;;;;;;;5041175;28;9134;-81
2023/11/15 01:29:30;;;;;;;;;5.33;4.33;;;;;;;;5044662;28;9754;-79
2023/11/15 01:31:57;;;;;;;;;4.67;3.00;;;;;;;;5047017;28;8972;-82
2023/11/15 01:34:24;;;;;;;;;4.00;2.33;;;;;;;;5053064;28;9094;-83
2023/11/15 01:36:54;;;;;;;;;2.67;2.00;;;;;;;;5053876;28;9075;-80
2023/11/15 01:39:23;;;;;;;;;7.67;2.00;;;;;;;;5055505;28;9190;-78
2023/11/15 01:41:51;;;;;;;;;3.00;1.67;;;;;;;;5054753;28;8928;-80
2023/11/15 01:44:19;;;;;;;;;5.00;3.33;;;;;;;;5055136;28;9136;-80
2023/11/15 01:46:49;;;;;;;;;2.67;2.67;;;;;;;;5053994;28;9185;-78
2023/11/15 01:49:16;;;;;;;;;4.00;3.00;;;;;;;;5047630;28;9198;-80
2023/11/15 01:51:44;;;;;;;;;2.33;2.33;;;;;;;;5052860;28;9108;-78
2023/11/15 01:54:14;;;;;;;;;8.00;2.67;;;;;;;;5042061;28;9110;-80
2023/11/15 01:56:41;;;;;;;;;5.00;2.00;;;;;;;;5045671;28;8938;-81
2023/11/15 01:59:09;;;;;;;;;3.00;3.00;;;;;;;;5051206;28;9021;-78
2023/11/15 02:01:37;;;;;;;;;3.00;2.67;;;;;;;;5050966;28;9008;-84
2023/11/15 02:04:09;;;;;;;;;1.67;1.67;;;;;;;;5050083;28;9205;-83
2023/11/15 02:06:37;;;;;;;;;4.67;2.00;;;;;;;;5048781;28;9091;-83
2023/11/15 02:09:05;;;;;;;;;7.00;4.00;;;;;;;;5047715;28;9019;-81
2023/11/15 02:11:35;;;;;;;;;9.00;2.00;;;;;;;;5049410;28;9176;-83
2023/11/15 02:14:03;;;;;;;;;2.33;2.00;;;;;;;;5048849;28;9088;-82
2023/11/15 02:16:30;;;;;;;;;5.00;2.00;;;;;;;;5049552;28;9027;-81
2023/11/15 02:19:01;;;;;;;;;3.67;3.00;;;;;;;;5048592;28;9214;-82
2023/11/15 02:21:31;;;;;;;;;3.00;2.00;;;;;;;;5048731;28;9106;-82
2023/11/15 02:24:00;;;;;;;;;3.00;1.33;;;;;;;;5048100;28;9014;-82
2023/11/15 02:26:28;;;;;;;;;5.00;3.00;;;;;;;;5049015;28;9004;-82
2023/11/15 02:28:56;;;;;;;;;7.67;1.00;;;;;;;;5037181;28;9229;-80
2023/11/15 02:31:23;;;;;;;;;4.67;2.33;;;;;;;;5060344;28;9026;-80
2023/11/15 02:33:50;;;;;;;;;3.33;2.00;;;;;;;;5048856;28;9108;-80
2023/11/15 02:36:18;;;;;;;;;4.33;2.67;;;;;;;;5049374;28;8996;-81
2023/11/15 02:38:48;;;;;;;;;2.67;2.67;;;;;;;;5049146;28;9116;-80
2023/11/15 02:41:16;;;;;;;;;3.00;1.33;;;;;;;;5048662;28;8935;-80
2023/11/15 02:43:44;;;;;;;;;5.33;3.00;;;;;;;;5038121;28;8998;-79
2023/11/15 02:46:11;;;;;;;;;2.00;2.00;;;;;;;;5047698;28;9848;-80
2023/11/15 02:48:38;;;;;;;;;2.00;2.00;;;;;;;;5048674;28;9200;-80
2023/11/15 02:51:08;;;;;;;;;11.00;2.67;;;;;;;;5036781;28;9019;-79
2023/11/15 02:53:38;;;;;;;;;5.00;3.00;;;;;;;;5040525;28;9079;-79
2023/11/15 02:56:05;;;;;;;;;1.67;1.67;;;;;;;;5045361;28;9037;-79
2023/11/15 02:58:34;;;;;;;;;4.00;2.00;;;;;;;;5048764;28;9088;-80
2023/11/15 03:01:08;;;;;;;;;2.00;2.00;;;;;;;;5046969;28;9057;-80
2023/11/15 03:03:36;;;;;;;;;5.33;3.00;;;;;;;;5048614;28;8992;-81
2023/11/15 03:06:03;;;;;;;;;3.33;3.33;;;;;;;;5044823;28;9090;-79
2023/11/15 03:08:31;;;;;;;;;6.67;3.00;;;;;;;;5040777;28;9255;-81
2023/11/15 03:11:01;;;;;;;;;3.33;2.67;;;;;;;;5047638;28;9019;-80
2023/11/15 03:13:31;;;;;;;;;3.00;2.00;;;;;;;;5048701;28;9080;-80
2023/11/15 03:16:01;;;;;;;;;2.00;2.00;;;;;;;;5047213;28;8925;-79
2023/11/15 03:18:28;;;;;;;;;3.33;2.00;;;;;;;;5038262;28;8939;-81
2023/11/15 03:20:56;;;;;;;;;7.67;3.67;;;;;;;;5047702;28;8953;-81
2023/11/15 03:23:24;;;;;;;;;3.00;1.00;;;;;;;;5051159;28;9020;-80
2023/11/15 03:25:51;;;;;;;;;4.00;2.00;;;;;;;;5051620;28;9059;-78
2023/11/15 03:28:19;;;;;;;;;2.00;2.00;;;;;;;;5052313;28;9004;-78
2023/11/15 03:30:46;;;;;;;;;0.00;0.00;;;;;;;;5060043;28;8855;-78
2023/11/15 03:33:15;;;;;;;;;4.67;3.67;;;;;;;;5054313;28;8925;-77
2023/11/15 03:35:42;;;;;;;;;3.00;3.00;;;;;;;;5054198;28;9279;-79
2023/11/15 03:38:09;;;;;;;;;6.33;3.33;;;;;;;;5053558;28;9184;-79
2023/11/15 03:40:38;;;;;;;;;5.67;0.00;;;;;;;;5057533;28;9286;-78
2023/11/15 03:43:06;;;;;;;;;4.00;2.00;;;;;;;;5054516;28;8958;-77
2023/11/15 03:45:33;;;;;;;;;2.33;2.00;;;;;;;;5049455;28;8874;-82
2023/11/15 03:48:04;;;;;;;;;2.00;2.00;;;;;;;;5050659;28;9137;-82
2023/11/15 03:50:33;;;;;;;;;5.67;2.67;;;;;;;;5051952;28;9031;-82
2023/11/15 03:53:02;;;;;;;;;1.67;1.67;;;;;;;;5046746;28;9016;-82
2023/11/15 03:55:34;;;;;;;;;1.00;1.00;;;;;;;;5040821;28;8929;-82
2023/11/15 03:58:01;;;;;;;;;6.00;3.00;;;;;;;;5043136;28;8950;-81
2023/11/15 04:00:29;;;;;;;;;4.67;1.00;;;;;;;;5029500;28;8937;-82
2023/11/15 04:02:57;;;;;;;;;3.33;2.33;;;;;;;;5047094;28;8921;-79
2023/11/15 04:05:29;;;;;;;;;5.33;3.00;;;;;;;;5047987;28;9038;-82
2023/11/15 04:07:57;;;;;;;;;2.00;2.00;;;;;;;;5046073;28;8938;-81
2023/11/15 04:10:29;;;;;;;;;2.00;2.00;;;;;;;;5048054;28;9873;-82
2023/11/15 04:12:56;;;;;;;;;6.33;4.33;;;;;;;;5035943;28;8929;-81
2023/11/15 04:15:26;;;;;;;;;2.00;2.00;;;;;;;;5049865;28;9010;-83
2023/11/15 04:17:54;;;;;;;;;5.00;3.33;;;;;;;;5041887;28;9142;-83
2023/11/15 04:20:22;;;;;;;;;2.00;2.00;;;;;;;;5051082;28;9857;-83
2023/11/15 04:22:49;;;;;;;;;3.67;2.00;;;;;;;;5051563;28;9083;-83
2023/11/15 04:25:29;;;;;;;;;6.33;2.00;;;;;;;;5037880;28;9249;-83
2023/11/15 04:27:58;;;;;;;;;2.67;2.00;;;;;;;;5051299;28;9001;-79
2023/11/15 04:30:27;;;;;;;;;2.33;2.00;;;;;;;;5050780;28;9057;-81
2023/11/15 04:32:54;;;;;;;;;3.33;2.00;;;;;;;;5051383;28;9104;-80
2023/11/15 04:35:21;;;;;;;;;3.00;1.00;;;;;;;;5050952;28;8996;-81
2023/11/15 04:37:48;;;;;;;;;6.67;3.00;;;;;;;;5051049;28;9002;-82
2023/11/15 04:40:20;;;;;;;;;2.00;1.75;;;;;;;;5051334;28;9091;-83
2023/11/15 04:42:47;;;;;;;;;2.75;2.75;;;;;;;;5050941;28;8860;-79
2023/11/15 04:45:17;;;;;;;;;4.00;2.00;;;;;;;;5050751;28;9015;-82
2023/11/15 04:47:46;;;;;;;;;2.75;1.00;;;;;;;;5046575;28;8998;-80
2023/11/15 04:50:13;;;;;;;;;3.00;1.33;;;;;;;;5039417;28;8870;-80
2023/11/15 04:52:40;;;;;;;;;3.00;3.00;;;;;;;;5039025;28;8932;-81
2023/11/15 04:55:10;;;;;;;;;6.00;2.67;;;;;;;;5050558;28;9034;-81
2023/11/15 04:57:39;;;;;;;;;2.00;2.00;;;;;;;;5050129;28;9953;-78
2023/11/15 05:00:10;;;;;;;;;4.67;2.67;;;;;;;;5049886;28;9287;-79
2023/11/15 05:02:39;;;;;;;;;1.33;1.33;;;;;;;;5049025;28;9006;-80
2023/11/15 05:05:19;;;;;;;;;5.67;2.00;;;;;;;;5051852;28;8988;-81
2023/11/15 05:07:46;;;;;;;;;1.00;1.00;;;;;;;;5055276;28;9085;-82
2023/11/15 05:10:14;;;;;;;;;1.00;1.00;;;;;;;;5051029;28;9209;-85
2023/11/15 05:12:46;;;;;;;;;2.67;1.33;;;;;;;;5039884;28;9206;-81
2023/11/15 05:15:14;;;;;;;;;2.33;2.33;;;;;;;;5051717;28;9229;-83
2023/11/15 05:17:41;;;;;;;;;1.33;1.33;;;;;;;;5043300;28;9095;-81
2023/11/15 05:20:10;;;;;;;;;4.33;1.33;;;;;;;;5053674;28;9302;-79
2023/11/15 05:22:38;;;;;;;;;2.00;2.00;;;;;;;;5054683;28;9185;-80
2023/11/15 05:25:06;;;;;;;;;3.33;1.00;;;;;;;;5054574;28;9188;-78
2023/11/15 05:27:34;;;;;;;;;4.00;2.33;;;;;;;;5054799;28;9011;-80
2023/11/15 05:30:03;;;;;;;;;3.33;2.33;;;;;;;;5055156;28;9014;-79
2023/11/15 05:32:30;;;;;;;;;4.00;1.00;;;;;;;;5063102;28;9713;-77
2023/11/15 05:34:57;;;;;;;;;3.00;1.00;;;;;;;;5050378;28;9194;-79
2023/11/15 05:37:29;;;;;;;;;2.33;2.00;;;;;;;;5052118;28;8937;-82
2023/11/15 05:40:02;;;;;;;;;1.00;1.00;;;;;;;;5053699;28;9069;-80
2023/11/15 05:42:32;;;;;;;;;1.00;1.00;;;;;;;;5052547;28;9021;-82
2023/11/15 05:44:59;;;;;;;;;1.00;1.00;;;;;;;;5049499;28;9808;-82
2023/11/15 05:47:31;;;;;;;;;3.00;3.00;;;;;;;;5039098;28;9090;-80
2023/11/15 05:49:58;;;;;;;;;2.00;2.00;;;;;;;;5048492;28;9067;-80
2023/11/15 05:52:26;;;;;;;;;2.00;2.00;;;;;;;;5050077;28;9081;-81
2023/11/15 05:54:53;;;;;;;;;3.00;2.00;;;;;;;;5048837;28;9110;-81
2023/11/15 05:57:20;;;;;;;;;1.00;1.00;;;;;;;;5048689;28;8941;-81
2023/11/15 05:59:48;;;;;;;;;2.33;1.00;;;;;;;;5037083;28;9037;-81
2023/11/15 06:02:15;;;;;;;;;2.67;2.67;;;;;;;;5061374;28;8893;-77
2023/11/15 06:04:45;;;;;;;;;3.00;1.00;;;;;;;;5060042;28;9249;-79
2023/11/15 06:07:12;;;;;;;;;6.00;3.00;;;;;;;;5049316;28;9187;-77
2023/11/15 06:09:39;;;;;;;;;1.00;1.00;;;;;;;;5048775;28;9257;-74
2023/11/15 06:12:07;;;;;;;;;3.00;2.00;;;;;;;;5048781;28;9180;-81
2023/11/15 06:14:37;;;;;;;;;3.33;2.00;;;;;;;;5049058;28;9259;-79
2023/11/15 06:17:05;;;;;;;;;4.33;1.00;;;;;;;;5048678;28;9181;-79
2023/11/15 06:19:32;;;;;;;;;2.00;0.67;;;;;;;;5048335;28;9072;-79
2023/11/15 06:22:01;;;;;;;;;0.67;0.00;;;;;;;;5047617;28;9087;-79
2023/11/15 06:24:29;;;;;;;;;2.67;2.00;;;;;;;;5049026;28;8950;-78
2023/11/15 06:26:56;;;;;;;;;4.00;1.00;;;;;;;;5048512;28;9319;-80
2023/11/15 06:29:23;;;;;;;;;1.00;1.00;;;;;;;;5048833;28;9183;-80
2023/11/15 06:31:50;;;;;;;;;3.00;1.33;;;;;;;;5060371;28;9014;-78
2023/11/15 06:34:18;;;;;;;;;1.67;1.00;;;;;;;;5050516;28;9172;-80
2023/11/15 06:36:45;;;;;;;;;2.67;1.67;;;;;;;;5034517;28;9002;-79
2023/11/15 06:39:14;;;;;;;;;2.00;1.00;;;;;;;;5048627;28;9920;-79
2023/11/15 06:41:41;;;;;;;;;2.00;1.67;;;;;;;;5047526;28;9176;-78
2023/11/15 06:44:09;;;;;;;;;2.00;1.33;;;;;;;;5048376;28;9175;-79
2023/11/15 06:46:38;;;;;;;;;4.33;1.67;;;;;;;;5047511;28;9095;-80
2023/11/15 06:49:10;;;;;;;;;2.67;2.00;;;;;;;;5047816;28;9086;-79
2023/11/15 06:51:37;;;;;;;;;3.67;2.00;;;;;;;;5047464;28;9474;-78
2023/11/15 06:54:05;;;;;;;;;3.33;2.00;;;;;;;;5047738;28;9242;-79
2023/11/15 06:56:34;;;;;;;;;2.00;2.00;;;;;;;;5035671;28;9308;-79
2023/11/15 06:59:02;;;;;;;;;3.00;2.00;;;;;;;;5048024;28;9313;-81
2023/11/15 07:01:30;;;;;;;;;2.00;2.00;;;;;;;;5036674;28;9166;-78
2023/11/15 07:03:59;;;;;;;;;2.00;2.00;;;;;;;;5049836;28;9316;-79
2023/11/15 07:06:30;;;;;;;;;3.00;1.00;;;;;;;;5051728;28;9238;-79
2023/11/15 07:09:00;;;;;;;;;1.00;1.00;;;;;;;;5050916;28;10122;-78
2023/11/15 07:11:27;;;;;;;;;1.00;1.00;;;;;;;;5044273;28;9275;-78
2023/11/15 07:14:00;;;;;;;;;2.67;2.67;;;;;;;;5050808;28;9778;-79
2023/11/15 07:16:28;;;;;;;;;2.33;2.00;;;;;;;;5050434;28;9293;-78
2023/11/15 07:18:55;;;;;;;;;1.00;1.00;;;;;;;;5050002;28;9253;-79
2023/11/15 07:21:22;;;;;;;;;4.33;3.00;;;;;;;;5046912;28;9249;-80
2023/11/15 07:23:50;;;;;;;;;2.33;2.33;;;;;;;;5049274;28;10005;-78
2023/11/15 07:26:17;;;;;;;;;0.67;0.67;;;;;;;;5050165;28;9838;-78
2023/11/15 07:28:47;;;;;;;;;3.00;1.00;;;;;;;;5049387;28;9276;-80
2023/11/15 07:31:18;;;;;;;;;1.00;1.00;;;;;;;;5047682;28;9275;-79
2023/11/15 07:33:45;;;;;;;;;5.00;2.67;;;;;;;;5042161;28;9055;-76
2023/11/15 07:36:14;;;;;;;;;3.00;1.00;;;;;;;;5040809;28;9251;-78
2023/11/15 07:38:42;;;;;;;;;5.00;1.67;;;;;;;;5040381;28;9260;-78
2023/11/15 07:41:09;;;;;;;;;2.00;2.00;;;;;;;;5040962;28;9167;-77
2023/11/15 07:43:41;;;;;;;;;2.33;1.67;;;;;;;;5046228;28;9231;-78
2023/11/15 07:46:09;;;;;;;;;2.67;2.00;;;;;;;;5047386;28;9162;-79
2023/11/15 07:48:39;;;;;;;;;4.00;2.00;;;;;;;;5042671;28;9288;-77
2023/11/15 07:51:18;;;;;;;;;3.33;1.00;;;;;;;;5047476;28;9383;-80
2023/11/15 07:53:45;;;;;;;;;4.33;2.67;;;;;;;;5047391;28;9350;-82
2023/11/15 07:56:18;;;;;;;;;3.00;1.00;;;;;;;;5051478;28;9374;-82
2023/11/15 07:58:46;;;;;;;;;6.00;1.00;;;;;;;;5052708;28;10137;-84
2023/11/15 08:01:22;;;;;;;;;2.67;1.00;;;;;;;;5031551;28;9211;-81
2023/11/15 08:03:50;;;;;;;;;2.33;1.00;;;;;;;;5045093;28;9183;-76
2023/11/15 08:06:18;;;;;;;;;1.00;1.00;;;;;;;;5051272;28;9233;-79
2023/11/15 08:08:45;;;;;;;;;4.67;1.00;;;;;;;;5050825;28;9338;-78
2023/11/15 08:11:12;;;;;;;;;2.67;2.67;;;;;;;;5050643;28;9459;-78
2023/11/15 08:13:39;;;;;;;;;3.00;3.00;;;;;;;;5050408;28;9376;-80
2023/11/15 08:16:12;;;;;;;;;4.67;3.00;;;;;;;;5040067;28;9299;-79
2023/11/15 08:18:39;;;;;;;;;1.00;1.00;;;;;;;;5039916;28;9326;-80
2023/11/15 08:21:26;;;;;;;;;4.33;2.33;;;;;;;;5049129;28;9264;-78
2023/11/15 08:23:54;;;;;;;;;3.67;2.67;;;;;;;;5048731;28;9252;-79
2023/11/15 08:26:21;;;;;;;;;3.00;2.00;;;;;;;;5047473;28;9336;-76
2023/11/15 08:28:48;;;;;;;;;2.00;2.00;;;;;;;;5052940;28;9069;-81
2023/11/15 08:31:15;;;;;;;;;2.00;2.00;;;;;;;;5050852;28;8956;-81
2023/11/15 08:33:44;;;;;;;;;4.00;1.00;;;;;;;;5049885;28;9011;-79
2023/11/15 08:36:13;;;;;;;;;1.33;1.33;;;;;;;;5050330;28;9004;-78
2023/11/15 08:38:41;;;;;;;;;2.67;1.00;;;;;;;;5048268;28;9194;-78
2023/11/15 08:41:09;;;;;;;;;2.33;1.00;;;;;;;;5050757;28;9153;-77
2023/11/15 08:43:36;;;;;;;;;1.00;1.00;;;;;;;;5050096;28;9070;-79
2023/11/15 08:46:09;;;;;;;;;3.00;2.00;;;;;;;;5050286;28;9022;-78
2023/11/15 08:48:36;;;;;;;;;2.00;1.00;;;;;;;;5051742;28;9052;-77
2023/11/15 08:51:04;;;;;;;;;2.67;2.67;;;;;;;;5052159;28;9026;-79
2023/11/15 08:53:32;;;;;;;;;4.67;0.00;;;;;;;;5051903;28;9017;-78
2023/11/15 08:56:03;;;;;;;;;2.00;2.00;;;;;;;;5052459;28;8982;-78
2023/11/15 08:58:35;;;;;;;;;2.67;1.00;;;;;;;;5043177;28;8913;-77
2023/11/15 09:01:02;;;;;;;;;1.33;1.33;;;;;;;;5049567;28;8980;-78
2023/11/15 09:03:29;;;;;;;;;1.00;1.00;;;;;;;;5052245;28;9018;-79
2023/11/15 09:05:59;;;;;;;;;2.00;2.00;;;;;;;;5050374;28;9230;-79
2023/11/15 09:08:27;;;;;;;;;7.67;2.00;;;;;;;;5050851;28;8993;-78
2023/11/15 09:10:55;;;;;;;;;2.00;2.00;;;;;;;;5046770;28;9081;-78
2023/11/15 09:13:23;;;;;;;;;3.25;2.50;;;;;;;;5043541;28;9004;-78
2023/11/15 09:15:53;;;;;;;;;1.25;1.25;;;;;;;;5050382;28;8828;-79
2023/11/15 09:18:23;;;;;;;;;3.25;1.75;;;;;;;;5049876;28;8844;-80
2023/11/15 09:20:52;;;;;;;;;2.25;2.25;;;;;;;;5049743;28;8836;-79
2023/11/15 09:23:20;;;;;;;;;2.50;2.50;;;;;;;;5049061;28;8964;-79
2023/11/15 09:25:53;;;;;;;;;3.25;1.75;;;;;;;;5050177;28;8840;-80
2023/11/15 09:28:23;;;;;;;;;2.00;2.00;;;;;;;;5050307;28;8931;-83
2023/11/15 09:30:52;;;;;;;;;2.00;2.00;;;;;;;;5049960;28;8882;-82
2023/11/15 09:33:20;;;;;;;;;4.50;2.50;;;;;;;;5037768;28;8885;-79
2023/11/15 09:35:48;;;;;;;;;3.00;1.75;;;;;;;;5049104;28;8856;-79
2023/11/15 09:38:15;;;;;;;;;3.25;2.00;;;;;;;;5048370;28;8840;-78
2023/11/15 09:40:43;;;;;;;;;3.25;3.00;;;;;;;;5048879;28;8866;-79
2023/11/15 09:43:10;;;;;;;;;2.00;2.00;;;;;;;;5035498;28;9708;-78
2023/11/15 09:45:42;;;;;;;;;3.50;1.75;;;;;;;;5048808;28;8840;-78
2023/11/15 09:48:13;;;;;;;;;1.25;1.25;;;;;;;;5048261;28;8852;-78
2023/11/15 09:50:44;;;;;;;;;2.75;1.00;;;;;;;;5037915;28;8847;-79
2023/11/15 09:53:11;;;;;;;;;2.25;2.00;;;;;;;;5047752;28;8875;-80
2023/11/15 09:55:39;;;;;;;;;2.75;2.50;;;;;;;;5049469;28;8883;-83
2023/11/15 09:58:06;;;;;;;;;7.75;3.75;;;;;;;;5048893;28;8848;-78
2023/11/15 10:00:36;;;;;;;;;2.25;1.00;;;;;;;;5048604;28;8743;-80
2023/11/15 10:03:05;;;;;;;;;3.00;1.75;;;;;;;;5048367;28;8874;-79
2023/11/15 10:05:35;;;;;;;;;2.75;1.75;;;;;;;;5053296;28;8913;-80
2023/11/15 10:08:10;;;;;;;;;5.50;2.00;;;;;;;;5057482;28;8844;-76
2023/11/15 10:10:38;;;;;;;;;2.75;1.00;;;;;;;;5061484;28;8864;-79
2023/11/15 10:13:12;;;;;;;;;3.50;1.75;;;;;;;;5049704;28;8974;-78
2023/11/15 10:15:39;;;;;;;;;3.00;1.00;;;;;;;;5048223;28;8871;-79
2023/11/15 10:18:11;;;;;;;;;3.50;1.75;;;;;;;;5038796;28;8878;-78
2023/11/15 10:20:41;;;;;;;;;2.50;1.75;;;;;;;;5044587;28;9692;-79
2023/11/15 10:23:10;;;;;;;;;3.25;1.00;;;;;;;;5049039;28;8860;-78
2023/11/15 10:25:47;;;;;;;;;1.25;1.25;;;;;;;;5048383;28;8848;-78
2023/11/15 10:28:15;;;;;;;;;1.50;1.50;;;;;;;;5048602;28;9141;-79
2023/11/15 10:30:42;;;;;;;;;4.00;1.00;;;;;;;;5048019;28;9626;-79
2023/11/15 10:33:22;;;;;;;;;1.00;1.00;;;;;;;;5103208;27;13513;-78
2023/11/15 10:35:49;;;;;;;;;3.25;1.75;;;;;;;;5085766;28;8882;-78
2023/11/15 10:38:23;;;;;;;;;1.50;1.50;;;;;;;;5087085;28;8835;-78
2023/11/15 10:40:52;;;;;;;;;5.00;1.50;;;;;;;;5085871;28;8881;-78
2023/11/15 10:43:19;;;;;;;;;2.75;2.00;;;;;;;;5079548;28;9005;-78
2023/11/15 10:45:47;;;;;;;;;3.75;2.25;;;;;;;;5079198;28;8916;-77
2023/11/15 10:48:17;;;;;;;;;1.50;1.50;;;;;;;;5087156;28;8869;-78
2023/11/15 10:50:49;;;;;;;;;3.25;2.00;;;;;;;;5081575;28;8865;-78
2023/11/15 10:53:17;;;;;;;;;4.00;1.50;;;;;;;;5086301;28;8850;-78
2023/11/15 10:55:44;;;;;;;;;4.50;2.00;;;;;;;;5084352;28;8843;-78
2023/11/15 10:58:14;;;;;;;;;4.25;1.00;;;;;;;;5084238;28;8862;-78
2023/11/15 11:00:43;;;;;;;;;1.00;1.00;;;;;;;;5074148;27;9656;-78
2023/11/15 11:03:11;;;;;;;;;2.75;1.25;;;;;;;;5060576;28;9643;-78
2023/11/15 11:05:46;;;;;;;;;3.50;1.75;;;;;;;;5064129;28;8868;-78
2023/11/15 11:08:25;;;;;;;;;5.50;2.25;;;;;;;;5064249;28;8861;-78
2023/11/15 11:11:01;;;;;;;;;1.75;0.00;;;;;;;;5063571;28;8841;-79
2023/11/15 11:13:28;;;;;;;;;1.00;1.00;;;;;;;;5056357;28;8856;-81
2023/11/15 11:15:58;;;;;;;;;2.75;1.00;;;;;;;;5066724;28;9687;-81
2023/11/15 11:18:28;;;;;;;;;5.00;1.50;;;;;;;;5067783;28;8880;-81
2023/11/15 11:21:01;;;;;;;;;1.00;1.00;;;;;;;;5066610;28;8857;-82
2023/11/15 11:23:31;;;;;;;;;4.00;2.75;;;;;;;;5068596;28;8853;-79
2023/11/15 11:26:34;;;;;;;;;6.25;2.00;;;;;;;;5056347;28;8853;-81
2023/11/15 11:29:02;;;;;;;;;1.75;0.25;;;;;;;;5064114;28;8980;-80
2023/11/15 11:31:30;;;;;;;;;1.00;1.00;;;;;;;;5070711;27;8847;-83
2023/11/15 11:34:14;;;;;;;;;2.75;2.75;;;;;;;;5085947;28;8926;-81
2023/11/15 11:36:53;;;;;;;;;3.75;2.50;;;;;;;;5080131;28;8904;-79
2023/11/15 11:39:22;;;;;;;;;11.00;9.25;;;;;;;;5074200;28;9637;-80
2023/11/15 11:41:56;;;;;;;;;2.50;1.00;;;;;;;;5084025;28;9122;-85
2023/11/15 11:44:26;;;;;;;;;1.00;1.00;;;;;;;;5073717;28;9599;-83
2023/11/15 11:47:11;;;;;;;;;2.00;2.00;;;;;;;;5072699;28;9300;-84
2023/11/15 11:49:47;;;;;;;;;3.75;1.00;;;;;;;;5073231;28;8844;-83
2023/11/15 11:52:22;;;;;;;;;6.00;3.00;;;;;;;;5075185;28;8879;-81
2023/11/15 11:54:51;;;;;;;;;2.00;2.00;;;;;;;;5071032;28;8864;-82
2023/11/15 11:57:24;;;;;;;;;1.00;1.00;;;;;;;;5071402;28;8844;-79
2023/11/15 12:00:00;;;;;;;;;2.25;1.00;;;;;;;;5058651;28;8844;-77
2023/11/15 12:02:34;;;;;;;;;1.00;1.00;;;;;;;;5064712;28;8890;-78
2023/11/15 12:05:02;;;;;;;;;4.50;3.00;;;;;;;;5070341;28;8840;-80
2023/11/15 12:07:31;;;;;;;;;5.75;1.00;;;;;;;;5070670;28;8833;-80
2023/11/15 12:10:03;;;;;;;;;1.00;1.00;;;;;;;;5060505;28;8844;-80
2023/11/15 12:12:30;;;;;;;;;0.00;0.00;;;;;;;;5067262;28;8862;-79
2023/11/15 12:14:59;;;;;;;;;1.25;1.00;;;;;;;;5069271;28;9532;-79
2023/11/15 12:17:39;;;;;;;;;2.25;1.00;;;;;;;;5070055;28;8872;-79
2023/11/15 12:20:08;;;;;;;;;1.25;1.25;;;;;;;;5071066;28;8868;-77
2023/11/15 12:22:38;;;;;;;;;1.75;1.00;;;;;;;;5071310;28;8854;-79
2023/11/15 12:25:09;;;;;;;;;0.75;0.75;;;;;;;;5072306;28;8887;-79
2023/11/15 12:27:38;;;;;;;;;2.00;1.00;;;;;;;;5068150;28;8943;-77
2023/11/15 12:30:07;;;;;;;;;0.25;0.25;;;;;;;;5067088;28;10126;-77
2023/11/15 12:32:36;;;;;;;;;1.00;1.00;;;;;;;;5073474;28;8828;-77
2023/11/15 12:35:05;;;;;;;;;2.00;2.00;;;;;;;;5071913;28;8848;-77
2023/11/15 12:37:32;;;;;;;;;0.75;0.00;;;;;;;;5073052;28;8897;-79
2023/11/15 12:40:01;;;;;;;;;1.00;1.00;;;;;;;;5075616;28;8922;-77
2023/11/15 12:42:28;;;;;;;;;1.25;0.00;;;;;;;;5070113;28;8848;-76
2023/11/15 12:44:55;;;;;;;;;0.00;0.00;;;;;;;;5068201;28;8938;-76
2023/11/15 12:47:25;;;;;;;;;1.00;0.00;;;;;;;;5071664;28;8844;-81
2023/11/15 12:49:52;;;;;;;;;0.00;0.00;;;;;;;;5066065;28;8860;-78
2023/11/15 12:52:34;;;;;;;;;0.00;0.00;;;;;;;;5069623;28;8864;-77
2023/11/15 12:55:03;;;;;;;;;0.00;0.00;;;;;;;;5060550;28;8855;-77
2023/11/15 12:57:34;;;;;;;;;0.00;0.00;;;;;;;;5068067;28;9013;-79
2023/11/15 13:00:01;;;;;;;;;0.00;0.00;;;;;;;;5068833;28;8999;-78
2023/11/15 13:02:30;;;;;;;;;0.00;0.00;;;;;;;;5068356;28;9619;-81
2023/11/15 13:05:03;;;;;;;;;0.00;0.00;;;;;;;;5068333;28;8867;-82
2023/11/15 13:07:35;;;;;;;;;0.00;0.00;;;;;;;;5068830;28;8875;-77
2023/11/15 13:10:10;;;;;;;;;1.00;0.00;;;;;;;;5068863;28;8923;-79
2023/11/15 13:12:37;;;;;;;;;0.00;0.00;;;;;;;;5068516;28;8845;-82
2023/11/15 13:15:10;;;;;;;;;0.00;0.00;;;;;;;;5069188;28;8837;-82
2023/11/15 13:17:38;;;;;;;;;0.50;0.00;;;;;;;;5067825;28;8959;-82
2023/11/15 13:20:10;;;;;;;;;0.00;0.00;;;;;;;;5068865;28;8870;-78
2023/11/15 13:22:38;;;;;;;;;1.33;0.00;;;;;;;;5061509;28;8931;-84
2023/11/15 13:25:08;;;;;;;;;1.00;0.00;;;;;;;;5068276;28;9036;-82
2023/11/15 13:27:36;;;;;;;;;0.00;0.00;;;;;;;;5068247;28;9783;-76
2023/11/15 13:30:04;;;;;;;;;0.00;0.00;;;;;;;;5061950;28;9080;-81
2023/11/15 13:32:33;;;;;;;;;0.00;0.00;;;;;;;;5068425;28;9101;-80
2023/11/15 13:35:08;;;;;;;;;0.00;0.00;;;;;;;;5068477;28;9101;-80
2023/11/15 13:37:40;;;;;;;;;0.00;0.00;;;;;;;;5068969;28;9832;-77
2023/11/15 13:40:13;;;;;;;;;0.00;0.00;;;;;;;;5068114;28;9077;-80
2023/11/15 13:42:40;;;;;;;;;0.00;0.00;;;;;;;;5067365;28;9007;-81
2023/11/15 13:45:08;;;;;;;;;0.00;0.00;;;;;;;;5067963;28;8941;-82
2023/11/15 13:47:43;;;;;;;;;0.00;0.00;;;;;;;;5068199;28;9165;-78
2023/11/15 13:50:11;;;;;;;;;0.00;0.00;;;;;;;;5057344;28;9042;-82
2023/11/15 13:52:39;;;;;;;;;0.00;0.00;;;;;;;;5067291;28;8947;-78
2023/11/15 13:55:09;;;;;;;;;0.00;0.00;;;;;;;;5067600;28;8933;-78
2023/11/15 13:57:38;;;;;;;;;0.75;0.00;;;;;;;;5067684;28;9694;-78
2023/11/15 14:00:07;;;;;;;;;0.00;0.00;;;;;;;;5068309;28;8828;-78
2023/11/15 14:02:35;;;;;;;;;1.00;0.00;;;;;;;;5049974;28;8909;-79
2023/11/15 14:05:09;;;;;;;;;0.00;0.00;;;;;;;;5067916;28;8952;-79
2023/11/15 14:07:36;;;;;;;;;0.00;0.00;;;;;;;;5066979;28;9976;-79
2023/11/15 14:10:04;;;;;;;;;0.00;0.00;;;;;;;;5068657;28;9149;-79
2023/11/15 14:12:36;;;;;;;;;0.25;0.25;;;;;;;;5068138;28;9771;-78
2023/11/15 14:15:07;;;;;;;;;0.00;0.00;;;;;;;;5070539;28;8910;-79
2023/11/15 14:17:36;;;;;;;;;0.00;0.00;;;;;;;;5069482;28;8824;-79
2023/11/15 14:20:11;;;;;;;;;1.00;0.00;;;;;;;;5070846;28;8840;-79
2023/11/15 14:22:40;;;;;;;;;0.00;0.00;;;;;;;;5068091;28;8864;-82
2023/11/15 14:25:19;;;;;;;;;1.00;1.00;;;;;;;;5067259;28;8856;-79
2023/11/15 14:27:49;;;;;;;;;1.25;1.25;;;;;;;;5070110;28;8840;-77
2023/11/15 14:30:17;;;;;;;;;1.00;1.00;;;;;;;;5066361;28;8840;-76
2023/11/15 14:32:45;;;;;;;;;2.50;1.75;;;;;;;;5067876;28;8879;-77
2023/11/15 14:35:12;;;;;;;;;0.00;0.00;;;;;;;;5067915;28;8840;-78
2023/11/15 14:37:41;;;;;;;;;3.25;2.25;;;;;;;;5068220;28;9114;-77
2023/11/15 14:40:11;;;;;;;;;2.00;0.00;;;;;;;;5067473;28;8886;-76
2023/11/15 14:42:42;;;;;;;;;1.00;1.00;;;;;;;;5061902;28;8836;-76
2023/11/15 14:45:25;;;;;;;;;1.00;1.00;;;;;;;;5059543;28;8917;-77
2023/11/15 14:48:10;;;;;;;;;2.75;0.00;;;;;;;;5057966;28;8850;-79
2023/11/15 14:50:41;;;;;;;;;0.00;0.00;;;;;;;;5066662;28;8852;-77
2023/11/15 14:53:18;;;;;;;;;0.00;0.00;;;;;;;;5066963;28;8962;-78
2023/11/15 14:55:46;;;;;;;;;1.00;1.00;;;;;;;;5067268;28;8852;-78
2023/11/15 14:58:13;;;;;;;;;0.00;0.00;;;;;;;;5067712;28;9727;-80
2023/11/15 15:00:46;;;;;;;;;0.00;0.00;;;;;;;;5067048;28;8781;-80
2023/11/15 15:03:14;;;;;;;;;0.75;0.75;;;;;;;;5057409;28;8856;-77
2023/11/15 15:05:42;;;;;;;;;0.00;0.00;;;;;;;;5067261;28;8883;-82
2023/11/15 15:08:13;;;;;;;;;1.00;1.00;;;;;;;;5067362;28;8863;-80